sensor_id;sensor_type;location;lat;lon;timestamp;temperature;humidity
14000;DHT22;7075;53.574;10.054;2023-07-24T00:01:05;18.50;99.90
14000;DHT22;7075;53.574;10.054;2023-07-24T00:03:30;18.50;99.90
14000;DHT22;7075;53.574;10.054;2023-07-24T00:05:59;18.50;99.90
14000;DHT22;7075;53.574;10.054;2023-07-24T00:08:24;18.50;99.90
14000;DHT22;7075;53.574;10.054;2023-07-24T00:10:50;18.50;99.90
14000;DHT22;7075;53.574;10.054;2023-07-24T00:13:16;18.50;99.90
14000;DHT22;7075;53.574;10.054;2023-07-24T00:15:42;18.50;99.90
14000;DHT22;7075;53.574;10.054;2023-07-24T00:18:07;18.50;99.90
14000;DHT22;7075;53.574;10.054;2023-07-24T00:20:33;18.50;99.90
14000;DHT22;7075;53.574;10.054;2023-07-24T00:22:58;18.50;99.90
14000;DHT22;7075;53.574;10.054;2023-07-24T00:25:24;18.50;99.90
14000;DHT22;7075;53.574;10.054;2023-07-24T00:27:49;18.50;99.90
14000;DHT22;7075;53.574;10.054;2023-07-24T00:30:15;18.50;99.90
14000;DHT22;7075;53.574;10.054;2023-07-24T00:32:41;18.50;99.90
14000;DHT22;7075;53.574;10.054;2023-07-24T00:35:07;18.50;99.90
14000;DHT22;7075;53.574;10.054;2023-07-24T00:37:32;18.40;99.90
14000;DHT22;7075;53.574;10.054;2023-07-24T00:39:58;18.40;99.90
14000;DHT22;7075;53.574;10.054;2023-07-24T00:42:24;18.40;99.90
14000;DHT22;7075;53.574;10.054;2023-07-24T00:44:49;18.40;99.90
14000;DHT22;7075;53.574;10.054;2023-07-24T00:47:15;18.40;99.90
14000;DHT22;7075;53.574;10.054;2023-07-24T00:49:41;18.40;99.90
14000;DHT22;7075;53.574;10.054;2023-07-24T00:52:07;18.40;99.90
14000;DHT22;7075;53.574;10.054;2023-07-24T00:54:34;18.40;99.90
14000;DHT22;7075;53.574;10.054;2023-07-24T00:57:00;18.40;99.90
14000;DHT22;7075;53.574;10.054;2023-07-24T00:59:26;18.40;99.90
14000;DHT22;7075;53.574;10.054;2023-07-24T01:01:53;18.40;99.90
14000;DHT22;7075;53.574;10.054;2023-07-24T01:04:18;18.40;99.90
14000;DHT22;7075;53.574;10.054;2023-07-24T01:06:45;18.40;99.90
14000;DHT22;7075;53.574;10.054;2023-07-24T01:09:10;18.40;99.90
14000;DHT22;7075;53.574;10.054;2023-07-24T01:11:41;18.40;99.90
14000;DHT22;7075;53.574;10.054;2023-07-24T01:14:46;18.40;99.90
14000;DHT22;7075;53.574;10.054;2023-07-24T01:17:15;18.40;99.90
14000;DHT22;7075;53.574;10.054;2023-07-24T01:19:48;18.40;99.90
14000;DHT22;7075;53.574;10.054;2023-07-24T01:27:47;18.40;99.90
14000;DHT22;7075;53.574;10.054;2023-07-24T01:30:16;18.30;99.90
14000;DHT22;7075;53.574;10.054;2023-07-24T01:32:42;18.40;99.90
14000;DHT22;7075;53.574;10.054;2023-07-24T01:35:07;18.40;99.90
14000;DHT22;7075;53.574;10.054;2023-07-24T01:37:34;18.40;99.90
14000;DHT22;7075;53.574;10.054;2023-07-24T01:40:02;18.40;99.90
14000;DHT22;7075;53.574;10.054;2023-07-24T01:42:28;18.40;99.90
14000;DHT22;7075;53.574;10.054;2023-07-24T01:44:55;18.40;99.90
14000;DHT22;7075;53.574;10.054;2023-07-24T01:47:21;18.40;99.90
14000;DHT22;7075;53.574;10.054;2023-07-24T01:49:48;18.30;99.90
14000;DHT22;7075;53.574;10.054;2023-07-24T01:52:13;18.30;99.90
14000;DHT22;7075;53.574;10.054;2023-07-24T01:54:39;18.30;99.90
14000;DHT22;7075;53.574;10.054;2023-07-24T01:57:05;18.30;99.90
14000;DHT22;7075;53.574;10.054;2023-07-24T01:59:31;18.40;99.90
14000;DHT22;7075;53.574;10.054;2023-07-24T02:01:56;18.30;99.90
14000;DHT22;7075;53.574;10.054;2023-07-24T02:04:22;18.40;99.90
14000;DHT22;7075;53.574;10.054;2023-07-24T02:06:49;18.30;99.90
14000;DHT22;7075;53.574;10.054;2023-07-24T02:09:15;18.30;99.90
14000;DHT22;7075;53.574;10.054;2023-07-24T02:11:41;18.30;99.90
14000;DHT22;7075;53.574;10.054;2023-07-24T02:14:06;18.40;99.90
14000;DHT22;7075;53.574;10.054;2023-07-24T02:16:32;18.40;99.90
14000;DHT22;7075;53.574;10.054;2023-07-24T02:18:57;18.40;99.90
14000;DHT22;7075;53.574;10.054;2023-07-24T02:21:23;18.40;99.90
14000;DHT22;7075;53.574;10.054;2023-07-24T02:23:49;18.40;99.90
14000;DHT22;7075;53.574;10.054;2023-07-24T02:26:14;18.40;99.90
14000;DHT22;7075;53.574;10.054;2023-07-24T02:28:40;18.30;99.90
14000;DHT22;7075;53.574;10.054;2023-07-24T02:31:05;18.40;99.90
14000;DHT22;7075;53.574;10.054;2023-07-24T02:33:31;18.30;99.90
14000;DHT22;7075;53.574;10.054;2023-07-24T02:35:56;18.40;99.90
14000;DHT22;7075;53.574;10.054;2023-07-24T02:38:22;18.40;99.90
14000;DHT22;7075;53.574;10.054;2023-07-24T02:40:47;18.30;99.90
14000;DHT22;7075;53.574;10.054;2023-07-24T02:43:13;18.30;99.90
14000;DHT22;7075;53.574;10.054;2023-07-24T02:45:39;18.40;99.90
14000;DHT22;7075;53.574;10.054;2023-07-24T02:48:05;18.40;99.90
14000;DHT22;7075;53.574;10.054;2023-07-24T02:50:31;18.40;99.90
14000;DHT22;7075;53.574;10.054;2023-07-24T02:52:57;18.40;99.90
14000;DHT22;7075;53.574;10.054;2023-07-24T02:55:23;18.30;99.90
14000;DHT22;7075;53.574;10.054;2023-07-24T02:57:48;18.40;99.90
14000;DHT22;7075;53.574;10.054;2023-07-24T03:00:14;18.40;99.90
14000;DHT22;7075;53.574;10.054;2023-07-24T03:02:40;18.30;99.90
14000;DHT22;7075;53.574;10.054;2023-07-24T03:05:06;18.40;99.90
14000;DHT22;7075;53.574;10.054;2023-07-24T03:07:32;18.30;99.90
14000;DHT22;7075;53.574;10.054;2023-07-24T03:09:58;18.30;99.90
14000;DHT22;7075;53.574;10.054;2023-07-24T03:12:24;18.30;99.90
14000;DHT22;7075;53.574;10.054;2023-07-24T03:14:49;18.30;99.90
14000;DHT22;7075;53.574;10.054;2023-07-24T03:17:15;18.30;99.90
14000;DHT22;7075;53.574;10.054;2023-07-24T03:19:41;18.40;99.90
14000;DHT22;7075;53.574;10.054;2023-07-24T03:22:07;18.40;99.90
14000;DHT22;7075;53.574;10.054;2023-07-24T03:24:33;18.40;99.90
14000;DHT22;7075;53.574;10.054;2023-07-24T03:26:59;18.40;99.90
14000;DHT22;7075;53.574;10.054;2023-07-24T03:29:26;18.40;99.90
14000;DHT22;7075;53.574;10.054;2023-07-24T03:31:52;18.40;99.90
14000;DHT22;7075;53.574;10.054;2023-07-24T03:34:18;18.40;99.90
14000;DHT22;7075;53.574;10.054;2023-07-24T03:36:43;18.40;99.90
14000;DHT22;7075;53.574;10.054;2023-07-24T03:39:10;18.40;99.90
14000;DHT22;7075;53.574;10.054;2023-07-24T03:41:36;18.40;99.90
14000;DHT22;7075;53.574;10.054;2023-07-24T03:44:02;18.40;99.90
14000;DHT22;7075;53.574;10.054;2023-07-24T03:46:28;18.40;99.90
14000;DHT22;7075;53.574;10.054;2023-07-24T03:48:53;18.30;99.90
14000;DHT22;7075;53.574;10.054;2023-07-24T03:51:19;18.30;99.90
14000;DHT22;7075;53.574;10.054;2023-07-24T03:53:44;18.30;99.90
14000;DHT22;7075;53.574;10.054;2023-07-24T03:56:10;18.30;99.90
14000;DHT22;7075;53.574;10.054;2023-07-24T03:58:36;18.30;99.90
14000;DHT22;7075;53.574;10.054;2023-07-24T04:01:02;18.20;99.90
14000;DHT22;7075;53.574;10.054;2023-07-24T04:03:28;18.30;99.90
14000;DHT22;7075;53.574;10.054;2023-07-24T04:05:54;18.20;99.90
14000;DHT22;7075;53.574;10.054;2023-07-24T04:08:20;18.20;99.90
14000;DHT22;7075;53.574;10.054;2023-07-24T04:10:46;18.20;99.90
14000;DHT22;7075;53.574;10.054;2023-07-24T04:13:11;18.10;99.90
14000;DHT22;7075;53.574;10.054;2023-07-24T04:15:37;18.10;99.90
14000;DHT22;7075;53.574;10.054;2023-07-24T04:18:04;18.10;99.90
14000;DHT22;7075;53.574;10.054;2023-07-24T04:20:30;18.10;99.90
14000;DHT22;7075;53.574;10.054;2023-07-24T04:22:56;18.10;99.90
14000;DHT22;7075;53.574;10.054;2023-07-24T04:25:21;18.10;99.90
14000;DHT22;7075;53.574;10.054;2023-07-24T04:27:47;18.10;99.90
14000;DHT22;7075;53.574;10.054;2023-07-24T04:30:13;18.10;99.90
14000;DHT22;7075;53.574;10.054;2023-07-24T04:32:38;18.10;99.90
14000;DHT22;7075;53.574;10.054;2023-07-24T04:35:04;18.10;99.90
14000;DHT22;7075;53.574;10.054;2023-07-24T04:37:31;18.20;99.90
14000;DHT22;7075;53.574;10.054;2023-07-24T04:39:56;18.10;99.90
14000;DHT22;7075;53.574;10.054;2023-07-24T04:42:22;18.20;99.90
14000;DHT22;7075;53.574;10.054;2023-07-24T04:44:47;18.20;99.90
14000;DHT22;7075;53.574;10.054;2023-07-24T04:47:15;18.20;99.90
14000;DHT22;7075;53.574;10.054;2023-07-24T04:49:41;18.20;99.90
14000;DHT22;7075;53.574;10.054;2023-07-24T04:52:06;18.20;99.90
14000;DHT22;7075;53.574;10.054;2023-07-24T04:54:32;18.20;99.90
14000;DHT22;7075;53.574;10.054;2023-07-24T04:56:58;18.20;99.90
14000;DHT22;7075;53.574;10.054;2023-07-24T04:59:24;18.20;99.90
14000;DHT22;7075;53.574;10.054;2023-07-24T05:01:49;18.30;99.90
14000;DHT22;7075;53.574;10.054;2023-07-24T05:04:15;18.30;99.90
14000;DHT22;7075;53.574;10.054;2023-07-24T05:06:41;18.30;99.90
14000;DHT22;7075;53.574;10.054;2023-07-24T05:09:06;18.30;99.90
14000;DHT22;7075;53.574;10.054;2023-07-24T05:11:32;18.30;99.90
14000;DHT22;7075;53.574;10.054;2023-07-24T05:13:57;18.30;99.90
14000;DHT22;7075;53.574;10.054;2023-07-24T05:16:23;18.40;99.90
14000;DHT22;7075;53.574;10.054;2023-07-24T05:18:49;18.40;99.90
14000;DHT22;7075;53.574;10.054;2023-07-24T05:21:14;18.40;99.90
14000;DHT22;7075;53.574;10.054;2023-07-24T05:23:40;18.40;99.90
14000;DHT22;7075;53.574;10.054;2023-07-24T05:26:06;18.40;99.90
14000;DHT22;7075;53.574;10.054;2023-07-24T05:28:32;18.50;99.90
14000;DHT22;7075;53.574;10.054;2023-07-24T05:31:04;18.50;99.90
14000;DHT22;7075;53.574;10.054;2023-07-24T05:33:31;18.50;99.90
14000;DHT22;7075;53.574;10.054;2023-07-24T05:36:01;18.50;99.90
14000;DHT22;7075;53.574;10.054;2023-07-24T05:38:27;18.60;99.90
14000;DHT22;7075;53.574;10.054;2023-07-24T05:41:01;18.60;99.90
14000;DHT22;7075;53.574;10.054;2023-07-24T05:43:28;18.60;99.90
14000;DHT22;7075;53.574;10.054;2023-07-24T05:45:55;18.60;99.90
14000;DHT22;7075;53.574;10.054;2023-07-24T05:48:21;18.60;99.90
14000;DHT22;7075;53.574;10.054;2023-07-24T05:50:47;18.60;99.90
14000;DHT22;7075;53.574;10.054;2023-07-24T05:53:13;18.60;99.90
14000;DHT22;7075;53.574;10.054;2023-07-24T05:55:39;18.60;99.90
14000;DHT22;7075;53.574;10.054;2023-07-24T05:58:05;18.60;99.90
14000;DHT22;7075;53.574;10.054;2023-07-24T06:00:30;18.60;99.90
14000;DHT22;7075;53.574;10.054;2023-07-24T06:02:56;18.60;99.90
14000;DHT22;7075;53.574;10.054;2023-07-24T06:05:22;18.60;99.90
14000;DHT22;7075;53.574;10.054;2023-07-24T06:07:47;18.60;99.90
14000;DHT22;7075;53.574;10.054;2023-07-24T06:10:13;18.60;99.90
14000;DHT22;7075;53.574;10.054;2023-07-24T06:12:39;18.70;99.90
14000;DHT22;7075;53.574;10.054;2023-07-24T06:15:05;18.70;99.90
14000;DHT22;7075;53.574;10.054;2023-07-24T06:17:31;18.70;99.90
14000;DHT22;7075;53.574;10.054;2023-07-24T06:19:57;18.70;99.90
14000;DHT22;7075;53.574;10.054;2023-07-24T06:22:23;18.70;99.90
14000;DHT22;7075;53.574;10.054;2023-07-24T06:24:48;18.70;99.90
14000;DHT22;7075;53.574;10.054;2023-07-24T06:27:14;18.70;99.90
14000;DHT22;7075;53.574;10.054;2023-07-24T06:29:40;18.70;99.90
14000;DHT22;7075;53.574;10.054;2023-07-24T06:32:06;18.70;99.90
14000;DHT22;7075;53.574;10.054;2023-07-24T06:34:32;18.80;99.90
14000;DHT22;7075;53.574;10.054;2023-07-24T06:36:57;18.80;99.90
14000;DHT22;7075;53.574;10.054;2023-07-24T06:39:23;18.90;99.90
14000;DHT22;7075;53.574;10.054;2023-07-24T06:41:52;18.90;99.90
14000;DHT22;7075;53.574;10.054;2023-07-24T06:44:17;18.90;99.90
14000;DHT22;7075;53.574;10.054;2023-07-24T06:46:43;18.90;99.90
14000;DHT22;7075;53.574;10.054;2023-07-24T06:49:09;18.90;99.90
14000;DHT22;7075;53.574;10.054;2023-07-24T06:51:36;19.00;99.90
14000;DHT22;7075;53.574;10.054;2023-07-24T06:54:03;19.00;99.90
14000;DHT22;7075;53.574;10.054;2023-07-24T06:56:29;19.00;99.90
14000;DHT22;7075;53.574;10.054;2023-07-24T06:58:55;19.10;99.90
14000;DHT22;7075;53.574;10.054;2023-07-24T07:01:21;19.10;99.90
14000;DHT22;7075;53.574;10.054;2023-07-24T07:03:46;19.10;99.90
14000;DHT22;7075;53.574;10.054;2023-07-24T07:06:12;19.10;99.90
14000;DHT22;7075;53.574;10.054;2023-07-24T07:08:38;19.00;99.90
14000;DHT22;7075;53.574;10.054;2023-07-24T07:11:04;19.10;99.90
14000;DHT22;7075;53.574;10.054;2023-07-24T07:13:29;19.10;99.90
14000;DHT22;7075;53.574;10.054;2023-07-24T07:15:55;19.10;99.90
14000;DHT22;7075;53.574;10.054;2023-07-24T07:18:21;19.00;99.90
14000;DHT22;7075;53.574;10.054;2023-07-24T07:20:48;19.00;99.90
14000;DHT22;7075;53.574;10.054;2023-07-24T07:23:14;19.00;99.90
14000;DHT22;7075;53.574;10.054;2023-07-24T07:25:40;19.00;99.90
14000;DHT22;7075;53.574;10.054;2023-07-24T07:28:06;19.00;99.90
14000;DHT22;7075;53.574;10.054;2023-07-24T07:30:32;19.00;99.90
14000;DHT22;7075;53.574;10.054;2023-07-24T07:32:57;19.00;99.90
14000;DHT22;7075;53.574;10.054;2023-07-24T07:35:23;19.00;99.90
14000;DHT22;7075;53.574;10.054;2023-07-24T07:37:48;18.90;99.90
14000;DHT22;7075;53.574;10.054;2023-07-24T07:40:14;19.00;99.90
14000;DHT22;7075;53.574;10.054;2023-07-24T07:42:40;19.00;99.90
14000;DHT22;7075;53.574;10.054;2023-07-24T07:45:06;19.00;99.90
14000;DHT22;7075;53.574;10.054;2023-07-24T07:47:32;19.00;99.90
14000;DHT22;7075;53.574;10.054;2023-07-24T07:49:58;19.10;99.90
14000;DHT22;7075;53.574;10.054;2023-07-24T07:52:23;19.10;99.90
14000;DHT22;7075;53.574;10.054;2023-07-24T07:54:49;19.10;99.90
14000;DHT22;7075;53.574;10.054;2023-07-24T07:57:15;19.10;99.90
14000;DHT22;7075;53.574;10.054;2023-07-24T07:59:41;19.10;99.90
14000;DHT22;7075;53.574;10.054;2023-07-24T08:02:07;19.10;99.90
14000;DHT22;7075;53.574;10.054;2023-07-24T08:04:33;19.10;99.90
14000;DHT22;7075;53.574;10.054;2023-07-24T08:06:59;19.20;99.90
14000;DHT22;7075;53.574;10.054;2023-07-24T08:09:25;19.20;99.90
14000;DHT22;7075;53.574;10.054;2023-07-24T08:11:51;19.30;99.90
14000;DHT22;7075;53.574;10.054;2023-07-24T08:14:17;19.30;99.90
14000;DHT22;7075;53.574;10.054;2023-07-24T08:16:43;19.30;99.90
14000;DHT22;7075;53.574;10.054;2023-07-24T08:19:09;19.30;99.90
14000;DHT22;7075;53.574;10.054;2023-07-24T08:21:35;19.40;99.90
14000;DHT22;7075;53.574;10.054;2023-07-24T08:24:01;19.40;99.90
14000;DHT22;7075;53.574;10.054;2023-07-24T08:26:27;19.40;99.90
14000;DHT22;7075;53.574;10.054;2023-07-24T08:28:53;19.40;99.90
14000;DHT22;7075;53.574;10.054;2023-07-24T08:31:19;19.40;99.90
14000;DHT22;7075;53.574;10.054;2023-07-24T08:33:45;19.40;99.90
14000;DHT22;7075;53.574;10.054;2023-07-24T08:36:11;19.40;99.90
14000;DHT22;7075;53.574;10.054;2023-07-24T08:38:40;19.50;99.90
14000;DHT22;7075;53.574;10.054;2023-07-24T08:41:13;19.50;99.90
14000;DHT22;7075;53.574;10.054;2023-07-24T08:43:41;19.50;99.90
14000;DHT22;7075;53.574;10.054;2023-07-24T08:46:07;19.50;99.90
14000;DHT22;7075;53.574;10.054;2023-07-24T08:48:34;19.50;99.90
14000;DHT22;7075;53.574;10.054;2023-07-24T08:51:08;19.50;99.90
14000;DHT22;7075;53.574;10.054;2023-07-24T08:53:36;19.50;99.90
14000;DHT22;7075;53.574;10.054;2023-07-24T08:56:07;19.50;99.90
14000;DHT22;7075;53.574;10.054;2023-07-24T08:58:33;19.50;99.90
14000;DHT22;7075;53.574;10.054;2023-07-24T09:01:01;19.50;99.90
14000;DHT22;7075;53.574;10.054;2023-07-24T09:03:27;19.60;99.90
14000;DHT22;7075;53.574;10.054;2023-07-24T09:05:52;19.60;99.90
14000;DHT22;7075;53.574;10.054;2023-07-24T09:08:35;19.70;99.90
14000;DHT22;7075;53.574;10.054;2023-07-24T09:11:02;19.70;99.90
14000;DHT22;7075;53.574;10.054;2023-07-24T09:13:28;19.80;99.90
14000;DHT22;7075;53.574;10.054;2023-07-24T09:15:54;19.90;99.90
14000;DHT22;7075;53.574;10.054;2023-07-24T09:18:21;19.90;99.90
14000;DHT22;7075;53.574;10.054;2023-07-24T09:20:48;19.90;99.90
14000;DHT22;7075;53.574;10.054;2023-07-24T09:23:14;19.90;99.90
14000;DHT22;7075;53.574;10.054;2023-07-24T09:25:41;19.90;99.90
14000;DHT22;7075;53.574;10.054;2023-07-24T09:28:15;19.90;99.90
14000;DHT22;7075;53.574;10.054;2023-07-24T09:30:51;19.90;99.90
14000;DHT22;7075;53.574;10.054;2023-07-24T09:33:17;19.90;99.90
14000;DHT22;7075;53.574;10.054;2023-07-24T09:35:43;19.90;99.90
14000;DHT22;7075;53.574;10.054;2023-07-24T09:38:10;19.90;99.90
14000;DHT22;7075;53.574;10.054;2023-07-24T09:40:46;20.00;99.90
14000;DHT22;7075;53.574;10.054;2023-07-24T09:43:20;20.00;99.90
14000;DHT22;7075;53.574;10.054;2023-07-24T09:45:47;20.00;99.90
14000;DHT22;7075;53.574;10.054;2023-07-24T09:48:14;20.10;99.90
14000;DHT22;7075;53.574;10.054;2023-07-24T09:50:42;20.10;99.90
14000;DHT22;7075;53.574;10.054;2023-07-24T09:53:17;20.20;99.90
14000;DHT22;7075;53.574;10.054;2023-07-24T09:55:56;20.30;99.90
14000;DHT22;7075;53.574;10.054;2023-07-24T09:58:22;20.30;99.90
14000;DHT22;7075;53.574;10.054;2023-07-24T10:00:48;20.40;99.90
14000;DHT22;7075;53.574;10.054;2023-07-24T10:03:14;20.40;99.90
14000;DHT22;7075;53.574;10.054;2023-07-24T10:05:43;20.40;99.90
14000;DHT22;7075;53.574;10.054;2023-07-24T10:08:10;20.50;99.90
14000;DHT22;7075;53.574;10.054;2023-07-24T10:10:37;20.50;99.90
14000;DHT22;7075;53.574;10.054;2023-07-24T10:13:03;20.50;99.90
14000;DHT22;7075;53.574;10.054;2023-07-24T10:15:29;20.50;99.90
14000;DHT22;7075;53.574;10.054;2023-07-24T10:18:06;20.50;99.90
14000;DHT22;7075;53.574;10.054;2023-07-24T10:20:36;20.50;99.90
14000;DHT22;7075;53.574;10.054;2023-07-24T10:23:04;20.50;99.90
14000;DHT22;7075;53.574;10.054;2023-07-24T10:25:34;20.50;99.90
14000;DHT22;7075;53.574;10.054;2023-07-24T10:28:06;20.50;99.90
14000;DHT22;7075;53.574;10.054;2023-07-24T10:30:43;20.60;99.90
14000;DHT22;7075;53.574;10.054;2023-07-24T10:33:17;20.60;99.90
14000;DHT22;7075;53.574;10.054;2023-07-24T10:36:04;20.50;99.90
14000;DHT22;7075;53.574;10.054;2023-07-24T10:38:56;20.50;99.90
14000;DHT22;7075;53.574;10.054;2023-07-24T10:41:22;20.50;99.90
14000;DHT22;7075;53.574;10.054;2023-07-24T10:43:51;20.50;99.90
14000;DHT22;7075;53.574;10.054;2023-07-24T10:46:19;20.60;99.90
14000;DHT22;7075;53.574;10.054;2023-07-24T10:48:47;20.70;99.90
14000;DHT22;7075;53.574;10.054;2023-07-24T10:51:13;20.70;99.90
14000;DHT22;7075;53.574;10.054;2023-07-24T10:53:45;20.80;99.90
14000;DHT22;7075;53.574;10.054;2023-07-24T10:56:11;20.80;99.90
14000;DHT22;7075;53.574;10.054;2023-07-24T10:58:36;20.80;99.90
14000;DHT22;7075;53.574;10.054;2023-07-24T11:01:06;20.80;99.90
14000;DHT22;7075;53.574;10.054;2023-07-24T11:03:32;20.90;99.90
14000;DHT22;7075;53.574;10.054;2023-07-24T11:06:02;20.90;99.90
14000;DHT22;7075;53.574;10.054;2023-07-24T11:08:28;20.90;99.90
14000;DHT22;7075;53.574;10.054;2023-07-24T11:10:59;20.90;99.90
14000;DHT22;7075;53.574;10.054;2023-07-24T11:13:26;20.80;99.90
14000;DHT22;7075;53.574;10.054;2023-07-24T11:15:53;20.80;99.90
14000;DHT22;7075;53.574;10.054;2023-07-24T11:18:19;20.80;99.90
14000;DHT22;7075;53.574;10.054;2023-07-24T11:20:52;20.90;99.90
14000;DHT22;7075;53.574;10.054;2023-07-24T11:23:18;21.00;99.90
14000;DHT22;7075;53.574;10.054;2023-07-24T11:25:45;21.10;99.90
14000;DHT22;7075;53.574;10.054;2023-07-24T11:28:12;21.10;99.90
14000;DHT22;7075;53.574;10.054;2023-07-24T11:30:39;21.20;99.90
14000;DHT22;7075;53.574;10.054;2023-07-24T11:33:06;21.20;99.90
14000;DHT22;7075;53.574;10.054;2023-07-24T11:35:32;21.20;99.90
14000;DHT22;7075;53.574;10.054;2023-07-24T11:37:58;21.10;99.90
14000;DHT22;7075;53.574;10.054;2023-07-24T11:40:35;21.10;99.90
14000;DHT22;7075;53.574;10.054;2023-07-24T11:43:02;21.00;99.90
14000;DHT22;7075;53.574;10.054;2023-07-24T11:45:28;21.00;99.90
14000;DHT22;7075;53.574;10.054;2023-07-24T11:47:54;21.10;99.90
14000;DHT22;7075;53.574;10.054;2023-07-24T11:50:23;21.20;99.90
14000;DHT22;7075;53.574;10.054;2023-07-24T11:52:50;21.40;99.90
14000;DHT22;7075;53.574;10.054;2023-07-24T11:55:29;21.60;99.90
14000;DHT22;7075;53.574;10.054;2023-07-24T11:58:00;21.90;99.90
14000;DHT22;7075;53.574;10.054;2023-07-24T12:00:26;22.30;99.90
14000;DHT22;7075;53.574;10.054;2023-07-24T12:02:53;22.80;99.90
14000;DHT22;7075;53.574;10.054;2023-07-24T12:05:19;23.30;99.90
14000;DHT22;7075;53.574;10.054;2023-07-24T12:07:45;23.80;99.90
14000;DHT22;7075;53.574;10.054;2023-07-24T12:10:12;23.90;99.90
14000;DHT22;7075;53.574;10.054;2023-07-24T12:12:48;23.90;99.90
14000;DHT22;7075;53.574;10.054;2023-07-24T12:15:14;23.70;99.90
14000;DHT22;7075;53.574;10.054;2023-07-24T12:17:41;24.00;99.90
14000;DHT22;7075;53.574;10.054;2023-07-24T12:20:08;24.30;99.90
14000;DHT22;7075;53.574;10.054;2023-07-24T12:22:35;24.40;99.90
14000;DHT22;7075;53.574;10.054;2023-07-24T12:25:02;24.50;99.90
14000;DHT22;7075;53.574;10.054;2023-07-24T12:27:27;24.40;99.90
14000;DHT22;7075;53.574;10.054;2023-07-24T12:29:53;24.50;99.90
14000;DHT22;7075;53.574;10.054;2023-07-24T12:32:19;24.50;99.90
14000;DHT22;7075;53.574;10.054;2023-07-24T12:34:49;24.50;99.90
14000;DHT22;7075;53.574;10.054;2023-07-24T12:37:17;24.40;99.90
14000;DHT22;7075;53.574;10.054;2023-07-24T12:39:47;24.50;99.90
14000;DHT22;7075;53.574;10.054;2023-07-24T12:42:13;24.50;99.90
14000;DHT22;7075;53.574;10.054;2023-07-24T12:44:39;24.60;99.90
14000;DHT22;7075;53.574;10.054;2023-07-24T12:47:05;24.60;99.90
14000;DHT22;7075;53.574;10.054;2023-07-24T12:49:31;24.60;99.90
14000;DHT22;7075;53.574;10.054;2023-07-24T12:51:57;24.70;99.90
14000;DHT22;7075;53.574;10.054;2023-07-24T12:54:22;24.80;99.90
14000;DHT22;7075;53.574;10.054;2023-07-24T12:56:49;24.30;99.90
14000;DHT22;7075;53.574;10.054;2023-07-24T12:59:17;24.50;99.90
14000;DHT22;7075;53.574;10.054;2023-07-24T13:01:43;24.50;99.90
14000;DHT22;7075;53.574;10.054;2023-07-24T13:04:09;24.50;99.90
14000;DHT22;7075;53.574;10.054;2023-07-24T13:06:34;24.50;99.90
14000;DHT22;7075;53.574;10.054;2023-07-24T13:09:00;24.50;99.90
14000;DHT22;7075;53.574;10.054;2023-07-24T13:11:26;24.80;99.90
14000;DHT22;7075;53.574;10.054;2023-07-24T13:13:54;24.80;99.90
14000;DHT22;7075;53.574;10.054;2023-07-24T13:16:20;24.90;99.90
14000;DHT22;7075;53.574;10.054;2023-07-24T13:18:46;24.90;99.90
14000;DHT22;7075;53.574;10.054;2023-07-24T13:21:11;24.80;99.90
14000;DHT22;7075;53.574;10.054;2023-07-24T13:23:38;24.90;99.90
14000;DHT22;7075;53.574;10.054;2023-07-24T13:26:05;25.00;99.90
14000;DHT22;7075;53.574;10.054;2023-07-24T13:28:33;25.00;99.90
14000;DHT22;7075;53.574;10.054;2023-07-24T13:30:59;25.10;99.90
14000;DHT22;7075;53.574;10.054;2023-07-24T13:33:25;25.00;99.90
14000;DHT22;7075;53.574;10.054;2023-07-24T13:35:50;24.90;99.90
14000;DHT22;7075;53.574;10.054;2023-07-24T13:38:16;24.90;99.90
14000;DHT22;7075;53.574;10.054;2023-07-24T13:40:42;24.80;99.90
14000;DHT22;7075;53.574;10.054;2023-07-24T13:43:08;24.60;99.90
14000;DHT22;7075;53.574;10.054;2023-07-24T13:45:33;24.70;99.90
14000;DHT22;7075;53.574;10.054;2023-07-24T13:47:59;25.00;99.90
14000;DHT22;7075;53.574;10.054;2023-07-24T13:50:24;25.10;99.90
14000;DHT22;7075;53.574;10.054;2023-07-24T13:52:50;25.00;99.90
14000;DHT22;7075;53.574;10.054;2023-07-24T13:55:17;25.00;99.90
14000;DHT22;7075;53.574;10.054;2023-07-24T13:57:42;25.00;99.90
14000;DHT22;7075;53.574;10.054;2023-07-24T14:00:08;24.90;99.90
14000;DHT22;7075;53.574;10.054;2023-07-24T14:02:34;25.00;99.90
14000;DHT22;7075;53.574;10.054;2023-07-24T14:04:59;24.90;99.90
14000;DHT22;7075;53.574;10.054;2023-07-24T14:07:25;24.90;99.90
14000;DHT22;7075;53.574;10.054;2023-07-24T14:09:50;24.80;99.90
14000;DHT22;7075;53.574;10.054;2023-07-24T14:12:16;24.60;99.90
14000;DHT22;7075;53.574;10.054;2023-07-24T14:14:42;24.50;99.90
14000;DHT22;7075;53.574;10.054;2023-07-24T14:17:07;24.30;99.90
14000;DHT22;7075;53.574;10.054;2023-07-24T14:19:33;24.30;99.90
14000;DHT22;7075;53.574;10.054;2023-07-24T14:21:59;24.40;99.90
14000;DHT22;7075;53.574;10.054;2023-07-24T14:24:25;24.40;99.90
14000;DHT22;7075;53.574;10.054;2023-07-24T14:26:52;24.30;99.90
14000;DHT22;7075;53.574;10.054;2023-07-24T14:29:18;24.20;99.90
14000;DHT22;7075;53.574;10.054;2023-07-24T14:31:44;24.10;99.90
14000;DHT22;7075;53.574;10.054;2023-07-24T14:34:10;23.90;99.90
14000;DHT22;7075;53.574;10.054;2023-07-24T14:36:38;23.80;99.90
14000;DHT22;7075;53.574;10.054;2023-07-24T14:39:05;23.80;99.90
14000;DHT22;7075;53.574;10.054;2023-07-24T14:41:31;23.70;99.90
14000;DHT22;7075;53.574;10.054;2023-07-24T14:43:56;23.60;99.90
14000;DHT22;7075;53.574;10.054;2023-07-24T14:46:22;23.60;99.90
14000;DHT22;7075;53.574;10.054;2023-07-24T14:48:48;23.60;99.90
14000;DHT22;7075;53.574;10.054;2023-07-24T14:51:14;23.50;99.90
14000;DHT22;7075;53.574;10.054;2023-07-24T14:53:39;23.50;99.90
14000;DHT22;7075;53.574;10.054;2023-07-24T14:56:05;23.40;99.90
14000;DHT22;7075;53.574;10.054;2023-07-24T14:58:30;23.40;99.90
14000;DHT22;7075;53.574;10.054;2023-07-24T15:00:56;23.30;99.90
14000;DHT22;7075;53.574;10.054;2023-07-24T15:03:22;23.30;99.90
14000;DHT22;7075;53.574;10.054;2023-07-24T15:05:50;23.30;99.90
14000;DHT22;7075;53.574;10.054;2023-07-24T15:08:17;23.30;99.90
14000;DHT22;7075;53.574;10.054;2023-07-24T15:10:43;23.30;99.90
14000;DHT22;7075;53.574;10.054;2023-07-24T15:13:10;23.20;99.90
14000;DHT22;7075;53.574;10.054;2023-07-24T15:15:35;23.10;99.90
14000;DHT22;7075;53.574;10.054;2023-07-24T15:18:01;23.20;99.90
14000;DHT22;7075;53.574;10.054;2023-07-24T15:20:26;23.10;99.90
14000;DHT22;7075;53.574;10.054;2023-07-24T15:22:52;23.00;99.90
14000;DHT22;7075;53.574;10.054;2023-07-24T15:25:21;23.00;99.90
14000;DHT22;7075;53.574;10.054;2023-07-24T15:27:46;23.00;99.90
14000;DHT22;7075;53.574;10.054;2023-07-24T15:30:13;23.00;99.90
14000;DHT22;7075;53.574;10.054;2023-07-24T15:32:38;23.00;99.90